createdAt,value
2018-07-11T00:00:35.134Z,980.3
2018-07-11T00:01:36.286Z,980.3
2018-07-11T00:02:37.439Z,980.3
2018-07-11T00:03:38.589Z,980.3
2018-07-11T00:04:39.792Z,980.4
2018-07-11T00:05:40.967Z,980.2
2018-07-11T00:06:42.117Z,980.3
2018-07-11T00:07:43.282Z,980.3
2018-07-11T00:08:44.451Z,980.4
2018-07-11T00:09:45.573Z,980.2
2018-07-11T00:10:46.994Z,980.4
2018-07-11T00:11:48.126Z,980.4
2018-07-11T00:12:49.277Z,980.3
2018-07-11T00:13:50.461Z,980.4
2018-07-11T00:14:51.632Z,980.4
2018-07-11T00:15:52.810Z,980.5
2018-07-11T00:16:53.953Z,980.4
2018-07-11T00:17:55.094Z,980.6
2018-07-11T00:18:56.253Z,980.4
2018-07-11T00:19:57.366Z,980.4
2018-07-11T00:20:58.533Z,980.4
2018-07-11T00:21:59.662Z,980.4
2018-07-11T00:23:00.836Z,980.5
2018-07-11T00:24:01.970Z,980.3
2018-07-11T00:25:03.142Z,980.4
2018-07-11T00:26:04.505Z,980.3
2018-07-11T00:27:05.990Z,980.4
2018-07-11T00:28:08.375Z,980.4
2018-07-11T00:29:09.538Z,980.4
2018-07-11T00:30:10.677Z,980.4
2018-07-11T00:31:11.872Z,980.5
2018-07-11T00:32:13.044Z,980.5
2018-07-11T00:33:14.209Z,980.5
2018-07-11T00:34:15.353Z,980.5
2018-07-11T00:35:16.511Z,980.2
2018-07-11T00:36:17.665Z,980.4
2018-07-11T00:37:18.968Z,980.4
2018-07-11T00:38:20.042Z,980.3
2018-07-11T00:39:21.175Z,980.5
2018-07-11T00:40:22.309Z,980.4
2018-07-11T00:41:23.744Z,980.5
2018-07-11T00:42:24.897Z,980.4
2018-07-11T00:43:26.487Z,980.4
2018-07-11T00:44:27.633Z,980.4
2018-07-11T00:45:28.789Z,980.4
2018-07-11T00:46:29.970Z,980.4
2018-07-11T00:47:31.140Z,980.5
2018-07-11T00:48:32.254Z,980.5
2018-07-11T00:49:33.405Z,980.3
2018-07-11T00:50:34.545Z,980.4
2018-07-11T00:51:35.724Z,980.5
2018-07-11T00:52:36.857Z,980.5
2018-07-11T00:53:37.984Z,980.4
2018-07-11T00:54:39.121Z,980.4
2018-07-11T00:55:40.278Z,980.5
2018-07-11T00:56:41.592Z,980.4
2018-07-11T00:57:42.776Z,980.4
2018-07-11T00:58:43.902Z,980.3
2018-07-11T00:59:45.050Z,980.3
2018-07-11T01:00:46.185Z,980.5
2018-07-11T01:01:47.396Z,980.4
2018-07-11T01:02:48.565Z,980.5
2018-07-11T01:03:49.727Z,980.4
2018-07-11T01:04:50.865Z,980.4
2018-07-11T01:05:52.010Z,980.5
2018-07-11T01:06:53.226Z,980.4
2018-07-11T01:07:54.362Z,980.4
2018-07-11T01:08:55.514Z,980.4
2018-07-11T01:09:56.644Z,980.5
2018-07-11T01:10:57.793Z,980.4
2018-07-11T01:11:59.210Z,980.4
2018-07-11T01:13:00.393Z,980.5
2018-07-11T01:14:01.551Z,980.4
2018-07-11T01:15:02.730Z,980.5
2018-07-11T01:16:03.888Z,980.5
2018-07-11T01:17:05.086Z,980.6
2018-07-11T01:18:06.226Z,980.6
2018-07-11T01:19:07.378Z,980.5
2018-07-11T01:20:08.515Z,980.5
2018-07-11T01:21:09.661Z,980.5
2018-07-11T01:22:10.858Z,980.5
2018-07-11T01:23:12.017Z,980.5
2018-07-11T01:24:13.213Z,980.5
2018-07-11T01:25:14.366Z,980.4
2018-07-11T01:26:15.510Z,980.5
2018-07-11T01:27:16.922Z,980.5
2018-07-11T01:28:18.074Z,980.6
2018-07-11T01:29:19.246Z,980.5
2018-07-11T01:30:20.389Z,980.5
2018-07-11T01:31:21.521Z,980.6
2018-07-11T01:32:22.701Z,980.6
2018-07-11T01:33:23.871Z,980.6
2018-07-11T01:34:25.022Z,980.6
2018-07-11T01:35:26.473Z,980.6
2018-07-11T01:36:27.619Z,980.6
2018-07-11T01:37:28.778Z,980.6
2018-07-11T01:38:29.905Z,980.7
2018-07-11T01:39:31.102Z,980.6
2018-07-11T01:40:32.232Z,980.6
2018-07-11T01:41:33.401Z,980.6
2018-07-11T01:42:35.566Z,980.6
2018-07-11T01:43:36.721Z,980.5
2018-07-11T01:44:37.875Z,980.5
2018-07-11T01:45:39.008Z,980.5
2018-07-11T01:46:40.146Z,980.5
2018-07-11T01:47:41.358Z,980.5
2018-07-11T01:48:42.514Z,980.6
2018-07-11T01:49:43.660Z,980.6
2018-07-11T01:50:44.789Z,980.6
2018-07-11T01:51:45.949Z,980.5
2018-07-11T01:52:47.117Z,980.6
2018-07-11T01:53:48.294Z,980.4
2018-07-11T01:54:49.434Z,980.5
2018-07-11T01:55:50.730Z,980.4
2018-07-11T01:56:51.882Z,980.4
2018-07-11T01:57:53.094Z,980.3
2018-07-11T01:58:54.306Z,980.3
2018-07-11T01:59:55.453Z,980.4
2018-07-11T02:00:56.589Z,980.4
2018-07-11T02:01:57.741Z,980.4
2018-07-11T02:02:58.913Z,980.4
2018-07-11T02:04:00.043Z,980.4
2018-07-11T02:05:01.242Z,980.4
2018-07-11T02:06:02.411Z,980.4
2018-07-11T02:07:03.565Z,980.3
2018-07-11T02:08:04.761Z,980.3
2018-07-11T02:09:05.939Z,980.3
2018-07-11T02:10:07.078Z,980.3
2018-07-11T02:11:08.206Z,980.3
2018-07-11T02:12:09.336Z,980.3
2018-07-11T02:13:10.682Z,980.3
2018-07-11T02:14:11.884Z,980.3
2018-07-11T02:15:13.064Z,980.4
2018-07-11T02:16:14.248Z,980.3
2018-07-11T02:17:15.448Z,980.2
2018-07-11T02:18:16.662Z,980.2
2018-07-11T02:19:17.814Z,980.3
2018-07-11T02:20:18.948Z,980.3
2018-07-11T02:21:20.114Z,980.2
2018-07-11T02:22:21.274Z,980.2
2018-07-11T02:23:22.464Z,980.2
2018-07-11T02:24:23.654Z,980.2
2018-07-11T02:25:24.797Z,980.2
2018-07-11T02:26:26.241Z,980.3
2018-07-11T02:27:27.407Z,980.2
2018-07-11T02:28:28.606Z,980.3
2018-07-11T02:29:29.734Z,980.3
2018-07-11T02:30:30.893Z,980.4
2018-07-11T02:31:32.016Z,980.2
2018-07-11T02:32:33.182Z,980.3
2018-07-11T02:33:34.364Z,980.4
2018-07-11T02:34:35.477Z,980.2
2018-07-11T02:35:36.680Z,980.4
2018-07-11T02:36:37.867Z,980.2
2018-07-11T02:37:39.020Z,980.4
2018-07-11T02:38:40.197Z,980.3
2018-07-11T02:39:41.385Z,980.3
2018-07-11T02:40:42.510Z,980.3
2018-07-11T02:41:43.705Z,980.2
2018-07-11T02:42:44.846Z,980.3
2018-07-11T02:43:46.135Z,980.2
2018-07-11T02:44:47.355Z,980.3
2018-07-11T02:45:48.498Z,980.2
2018-07-11T02:46:49.642Z,980.2
2018-07-11T02:47:50.796Z,980.3
2018-07-11T02:48:51.965Z,980.2
2018-07-11T02:49:53.223Z,980.2
2018-07-11T02:50:54.371Z,980.2
2018-07-11T02:51:55.532Z,980.2
2018-07-11T02:52:56.671Z,980.1
2018-07-11T02:53:57.858Z,980.2
2018-07-11T02:54:59.027Z,980.3
2018-07-11T02:56:00.188Z,980.2
2018-07-11T02:57:01.361Z,980.2
2018-07-11T02:58:02.517Z,980.2
2018-07-11T02:59:03.773Z,980.2
2018-07-11T03:00:04.933Z,980.3
2018-07-11T03:01:06.077Z,980.2
2018-07-11T03:02:07.258Z,980.2
2018-07-11T03:03:08.437Z,980.2
2018-07-11T03:04:09.622Z,980.3
2018-07-11T03:05:10.767Z,980.2
2018-07-11T03:06:11.915Z,980.2
2018-07-11T03:07:13.053Z,980.3
2018-07-11T03:08:14.197Z,980.3
2018-07-11T03:09:15.425Z,980.2
2018-07-11T03:10:16.563Z,980.2
2018-07-11T03:11:17.696Z,980.2
2018-07-11T03:12:18.891Z,980.1
2018-07-11T03:13:20.070Z,980.2
2018-07-11T03:14:21.281Z,980.2
2018-07-11T03:15:22.448Z,980.2
2018-07-11T03:16:23.583Z,980.2
2018-07-11T03:17:24.734Z,980.3
2018-07-11T03:18:25.917Z,980.3
2018-07-11T03:19:27.074Z,980.3
2018-07-11T03:20:28.200Z,980.4
2018-07-11T03:21:29.332Z,980.4
2018-07-11T03:22:30.513Z,980.4
2018-07-11T03:23:31.661Z,980.4
2018-07-11T03:24:32.817Z,980.5
2018-07-11T03:25:34.019Z,980.3
2018-07-11T03:26:35.138Z,980.3
2018-07-11T03:27:36.296Z,980.5
2018-07-11T03:28:37.445Z,980.4
2018-07-11T03:29:38.634Z,980.4
2018-07-11T03:30:39.778Z,980.5
2018-07-11T03:31:40.918Z,980.4
2018-07-11T03:32:42.072Z,980.4
2018-07-11T03:33:43.219Z,980.4
2018-07-11T03:34:44.788Z,980.4
2018-07-11T03:35:45.933Z,980.4
2018-07-11T03:36:47.090Z,980.4
2018-07-11T03:37:48.236Z,980.4
2018-07-11T03:38:49.383Z,980.4
2018-07-11T03:39:50.553Z,980.4
2018-07-11T03:40:51.700Z,980.4
2018-07-11T03:41:52.861Z,980.4
2018-07-11T03:42:54.001Z,980.4
2018-07-11T03:43:55.137Z,980.5
2018-07-11T03:44:56.588Z,980.5
2018-07-11T03:45:57.729Z,980.5
2018-07-11T03:46:58.893Z,980.5
2018-07-11T03:48:00.030Z,980.5
2018-07-11T03:49:01.184Z,980.6
2018-07-11T03:50:02.354Z,980.4
2018-07-11T03:51:03.593Z,980.5
2018-07-11T03:52:04.727Z,980.5
2018-07-11T03:53:05.863Z,980.5
2018-07-11T03:54:07.030Z,980.5
2018-07-11T03:55:08.211Z,980.5
2018-07-11T03:56:09.384Z,980.6
2018-07-11T03:57:10.534Z,980.5
2018-07-11T03:58:11.692Z,980.5
2018-07-11T03:59:12.845Z,980.6
2018-07-11T04:00:14.078Z,980.7
2018-07-11T04:01:15.221Z,980.7
2018-07-11T04:02:16.853Z,980.6
2018-07-11T04:03:17.998Z,980.6
2018-07-11T04:04:19.134Z,980.6
2018-07-11T04:05:20.337Z,980.6
2018-07-11T04:06:21.506Z,980.6
2018-07-11T04:07:22.694Z,980.6
2018-07-11T04:08:23.834Z,980.7
2018-07-11T04:09:24.979Z,980.7
2018-07-11T04:10:26.145Z,980.7
2018-07-11T04:11:27.278Z,980.8
2018-07-11T04:12:28.436Z,980.7
2018-07-11T04:13:29.644Z,980.7
2018-07-11T04:14:30.794Z,980.8
2018-07-11T04:15:32.165Z,980.8
2018-07-11T04:16:34.391Z,980.7
2018-07-11T04:17:35.562Z,980.8
2018-07-11T04:18:36.721Z,980.8
2018-07-11T04:19:37.853Z,980.8
2018-07-11T04:20:39.048Z,980.9
2018-07-11T04:21:40.178Z,980.8
2018-07-11T04:22:41.323Z,980.8
2018-07-11T04:23:42.446Z,980.8
2018-07-11T04:24:43.637Z,980.8
2018-07-11T04:25:44.795Z,980.8
2018-07-11T04:26:45.957Z,980.8
2018-07-11T04:27:47.125Z,980.8
2018-07-11T04:28:48.318Z,980.8
2018-07-11T04:29:49.457Z,980.9
2018-07-11T04:30:50.833Z,980.7
2018-07-11T04:31:52.253Z,980.8
2018-07-11T04:32:53.423Z,980.8
2018-07-11T04:33:54.577Z,980.9
2018-07-11T04:34:55.721Z,981
2018-07-11T04:35:56.913Z,981.1
2018-07-11T04:36:58.067Z,981.1
2018-07-11T04:37:59.209Z,981
2018-07-11T04:39:00.342Z,981
2018-07-11T04:40:01.486Z,980.9
2018-07-11T04:41:02.669Z,980.9
2018-07-11T04:42:03.821Z,980.9
2018-07-11T04:43:04.941Z,980.9
2018-07-11T04:44:06.323Z,981
2018-07-11T04:45:07.468Z,981.1
2018-07-11T04:46:08.938Z,981.1
2018-07-11T04:47:10.059Z,981.1
2018-07-11T04:48:11.204Z,981.1
2018-07-11T04:49:12.397Z,981.1
2018-07-11T04:50:13.597Z,981.1
2018-07-11T04:51:14.829Z,981.2
2018-07-11T04:52:15.980Z,981.1
2018-07-11T04:53:17.163Z,981.2
2018-07-11T04:54:18.322Z,981.1
2018-07-11T04:55:19.481Z,981.1
2018-07-11T04:56:20.653Z,981.1
2018-07-11T04:57:23.010Z,981.1
2018-07-11T04:58:24.229Z,981.2
2018-07-11T04:59:25.373Z,981.3
2018-07-11T05:00:26.522Z,981.3
2018-07-11T05:01:27.764Z,981.3
2018-07-11T05:02:28.908Z,981.4
2018-07-11T05:03:30.063Z,981.3
2018-07-11T05:04:31.218Z,981.4
2018-07-11T05:05:32.369Z,981.3
2018-07-11T05:06:33.584Z,981.3
2018-07-11T05:07:34.779Z,981.4
2018-07-11T05:08:35.944Z,981.6
2018-07-11T05:09:37.083Z,981.6
2018-07-11T05:10:38.238Z,981.5
2018-07-11T05:11:39.408Z,981.5
2018-07-11T05:12:40.572Z,981.6
2018-07-11T05:13:41.725Z,981.8
2018-07-11T05:14:42.857Z,981.7
2018-07-11T05:15:44.082Z,981.6
2018-07-11T05:16:45.281Z,981.7
2018-07-11T05:17:46.407Z,981.6
2018-07-11T05:18:47.550Z,981.6
2018-07-11T05:19:48.692Z,981.8
2018-07-11T05:20:49.847Z,981.8
2018-07-11T05:21:51.025Z,981.8
2018-07-11T05:22:52.186Z,981.7
2018-07-11T05:23:53.330Z,981.7
2018-07-11T05:24:54.522Z,981.7
2018-07-11T05:25:55.662Z,981.8
2018-07-11T05:26:56.853Z,981.8
2018-07-11T05:27:58.048Z,981.7
2018-07-11T05:28:59.552Z,981.6
2018-07-11T05:30:00.737Z,981.7
2018-07-11T05:31:01.878Z,981.7
2018-07-11T05:32:03.122Z,981.7
2018-07-11T05:33:04.285Z,981.7
2018-07-11T05:34:05.437Z,981.2
2018-07-11T05:35:06.562Z,981.4
2018-07-11T05:36:07.698Z,981.6
2018-07-11T05:37:08.917Z,981.6
2018-07-11T05:38:10.888Z,981.4
2018-07-11T05:39:12.490Z,981.5
2018-07-11T05:40:13.659Z,981.2
2018-07-11T05:41:14.816Z,981.1
2018-07-11T05:42:16.353Z,980.9
2018-07-11T05:43:21.624Z,981
2018-07-11T05:44:22.909Z,981.1
2018-07-11T05:45:24.182Z,981
2018-07-11T05:46:25.328Z,981.5
2018-07-11T05:47:26.793Z,981.4
2018-07-11T05:48:27.986Z,981.4
2018-07-11T05:49:29.128Z,981.2
2018-07-11T05:50:30.313Z,981.3
2018-07-11T05:51:31.470Z,981
2018-07-11T05:52:32.634Z,980.8
2018-07-11T05:53:33.810Z,980.8
2018-07-11T05:54:35.017Z,981.2
2018-07-11T05:55:36.209Z,981.3
2018-07-11T05:56:37.320Z,981.3
2018-07-11T05:57:38.498Z,981.2
2018-07-11T05:58:39.655Z,981.2
2018-07-11T05:59:40.820Z,980.7
2018-07-11T06:00:42.034Z,980.4
2018-07-11T06:01:43.208Z,981.1
2018-07-11T06:02:44.542Z,981
2018-07-11T06:03:45.620Z,981.2
2018-07-11T06:04:46.754Z,980.9
2018-07-11T06:05:47.979Z,980.9
2018-07-11T06:06:49.138Z,981
2018-07-11T06:07:50.352Z,980.7
2018-07-11T06:08:51.574Z,980.8
2018-07-11T06:09:52.702Z,981.1
2018-07-11T06:10:53.856Z,980.7
2018-07-11T06:11:55.042Z,980.9
2018-07-11T06:12:56.244Z,980.9
2018-07-11T06:13:57.390Z,980.6
2018-07-11T06:14:58.554Z,980.5
2018-07-11T06:15:59.678Z,981
2018-07-11T06:17:00.863Z,981.4
2018-07-11T06:18:02.347Z,981
2018-07-11T06:19:03.527Z,980.9
2018-07-11T06:20:05.007Z,981.5
2018-07-11T06:21:06.190Z,981.3
2018-07-11T06:22:07.405Z,981.1
2018-07-11T06:23:08.631Z,981.3
2018-07-11T06:24:09.805Z,981.3
2018-07-11T06:25:10.932Z,981.3
2018-07-11T06:26:12.083Z,981.6
2018-07-11T06:27:13.242Z,981.4
2018-07-11T06:28:14.448Z,981.2
2018-07-11T06:29:15.612Z,981.1
2018-07-11T06:30:16.834Z,981
2018-07-11T06:31:18.028Z,980.8
2018-07-11T06:32:19.198Z,980.7
2018-07-11T06:33:20.419Z,981
2018-07-11T06:34:21.553Z,980.7
2018-07-11T06:35:22.794Z,980.9
2018-07-11T06:36:23.949Z,981.1
2018-07-11T06:37:25.185Z,981
2018-07-11T06:38:26.382Z,980.7
2018-07-11T06:39:27.535Z,980.6
2018-07-11T06:40:28.674Z,980.7
2018-07-11T06:41:29.825Z,980.8
2018-07-11T06:42:30.978Z,980.9
2018-07-11T06:43:32.255Z,980.8
2018-07-11T06:44:33.460Z,980.8
2018-07-11T06:45:34.518Z,980.8
2018-07-11T06:46:35.679Z,980.7
2018-07-11T06:47:36.820Z,980.7
2018-07-11T06:48:38.039Z,980.6
2018-07-11T06:49:39.204Z,980.7
2018-07-11T06:50:40.457Z,980.5
2018-07-11T06:51:41.606Z,980.7
2018-07-11T06:52:42.912Z,980.6
2018-07-11T06:53:44.104Z,980.7
2018-07-11T06:54:45.357Z,980.8
2018-07-11T06:55:46.500Z,980.6
2018-07-11T06:56:47.638Z,980.6
2018-07-11T06:57:48.785Z,980.7
2018-07-11T06:58:50.019Z,980.7
2018-07-11T06:59:51.165Z,980.5
2018-07-11T07:00:52.337Z,980.6
2018-07-11T07:01:53.510Z,980.7
2018-07-11T07:02:54.729Z,980.7
2018-07-11T07:03:55.926Z,980.7
2018-07-11T07:04:57.081Z,980.7
2018-07-11T07:05:58.281Z,980.7
2018-07-11T07:06:59.459Z,980.7
2018-07-11T07:08:00.602Z,980.7
2018-07-11T07:09:01.809Z,980.7
2018-07-11T07:10:02.958Z,980.7
2018-07-11T07:11:04.115Z,980.6
2018-07-11T07:12:05.541Z,980.6
2018-07-11T07:13:06.704Z,980.6
2018-07-11T07:14:07.912Z,980.5
2018-07-11T07:15:09.058Z,980.5
2018-07-11T07:16:10.210Z,980.5
2018-07-11T07:17:11.346Z,980.6
2018-07-11T07:18:12.538Z,980.5
2018-07-11T07:19:13.730Z,980.4
2018-07-11T07:20:14.906Z,980.4
2018-07-11T07:21:16.038Z,980.4
2018-07-11T07:22:17.246Z,980.4
2018-07-11T07:23:18.414Z,980.4
2018-07-11T07:24:19.640Z,980.2
2018-07-11T07:25:20.785Z,980.2
2018-07-11T07:26:21.955Z,980.2
2018-07-11T07:27:23.166Z,980.3
2018-07-11T07:28:24.317Z,980.1
2018-07-11T07:29:25.574Z,980.1
2018-07-11T07:30:26.781Z,980.2
2018-07-11T07:31:27.958Z,980.2
2018-07-11T07:32:29.105Z,980.1
2018-07-11T07:33:30.260Z,980.2
2018-07-11T07:34:31.450Z,980.2
2018-07-11T07:35:32.648Z,980.1
2018-07-11T07:36:33.839Z,980
2018-07-11T07:37:35.051Z,980.1
2018-07-11T07:38:36.229Z,980
2018-07-11T07:39:37.385Z,980.2
2018-07-11T07:40:38.544Z,980
2018-07-11T07:41:39.698Z,980.1
2018-07-11T07:42:40.860Z,980.1
2018-07-11T07:43:42.027Z,980.2
2018-07-11T07:44:43.225Z,980.1
2018-07-11T07:45:44.390Z,980.2
2018-07-11T07:46:45.639Z,980.3
2018-07-11T07:47:47.140Z,980.1
2018-07-11T07:48:48.289Z,980.1
2018-07-11T07:49:49.861Z,980.3
2018-07-11T07:50:51.003Z,980.1
2018-07-11T07:51:52.156Z,980.2
2018-07-11T07:52:53.384Z,980
2018-07-11T07:53:54.601Z,980
2018-07-11T07:54:55.812Z,980.1
2018-07-11T07:55:56.982Z,980.1
2018-07-11T07:56:58.129Z,979.9
2018-07-11T07:57:59.299Z,979.9
2018-07-11T07:59:03.149Z,979.8
2018-07-11T08:00:04.350Z,980.2
2018-07-11T08:01:05.574Z,980.3
2018-07-11T08:02:06.734Z,980.2
2018-07-11T08:03:07.873Z,980.1
2018-07-11T08:04:09.014Z,980.3
2018-07-11T08:05:10.251Z,980.2
2018-07-11T08:06:11.434Z,980.2
2018-07-11T08:07:12.603Z,980.2
2018-07-11T08:08:13.752Z,980
2018-07-11T08:09:15.015Z,980.2
2018-07-11T08:10:16.193Z,980.1
2018-07-11T08:11:17.366Z,980
2018-07-11T08:12:18.571Z,980.1
2018-07-11T08:13:19.745Z,980
2018-07-11T08:14:20.886Z,979.9
2018-07-11T08:15:22.085Z,980.1
2018-07-11T08:16:23.218Z,980.1
2018-07-11T08:17:24.424Z,980.1
2018-07-11T08:18:25.777Z,979.9
2018-07-11T08:19:26.962Z,980
2018-07-11T08:20:28.505Z,980
2018-07-11T08:21:29.729Z,980
2018-07-11T08:22:30.879Z,980
2018-07-11T08:23:32.099Z,980.1
2018-07-11T08:24:33.250Z,980
2018-07-11T08:25:34.514Z,980
2018-07-11T08:26:35.804Z,980.1
2018-07-11T08:27:36.958Z,980.1
2018-07-11T08:28:38.160Z,980
2018-07-11T08:29:39.374Z,980.1
2018-07-11T08:30:40.595Z,980.1
2018-07-11T08:31:41.776Z,980.1
2018-07-11T08:32:42.937Z,980.1
2018-07-11T08:33:44.362Z,980
2018-07-11T08:34:45.570Z,980.1
2018-07-11T08:35:46.787Z,980.1
2018-07-11T08:36:47.937Z,980.1
2018-07-11T08:37:49.086Z,980
2018-07-11T08:38:50.252Z,980
2018-07-11T08:39:51.458Z,980
2018-07-11T08:40:52.655Z,980
2018-07-11T08:41:53.820Z,979.9
2018-07-11T08:42:57.183Z,979.8
2018-07-11T08:43:58.385Z,979.9
2018-07-11T08:44:59.531Z,980
2018-07-11T08:46:00.813Z,980.1
2018-07-11T08:47:01.983Z,980
2018-07-11T08:48:03.260Z,980
2018-07-11T08:49:04.339Z,980
2018-07-11T08:50:05.570Z,979.8
2018-07-11T08:51:07.008Z,979.9
2018-07-11T08:52:08.167Z,980
2018-07-11T08:53:09.337Z,979.9
2018-07-11T08:54:10.562Z,979.8
2018-07-11T08:55:11.808Z,979.9
2018-07-11T08:56:12.936Z,979.8
2018-07-11T08:57:14.421Z,979.7
2018-07-11T08:58:15.604Z,979.9
2018-07-11T08:59:16.794Z,980
2018-07-11T09:00:17.945Z,980
2018-07-11T09:01:19.142Z,980
2018-07-11T09:02:20.316Z,979.9
2018-07-11T09:03:21.546Z,979.9
2018-07-11T09:04:22.710Z,979.9
2018-07-11T09:05:23.850Z,979.8
2018-07-11T09:06:25.090Z,979.8
2018-07-11T09:07:26.295Z,979.9
2018-07-11T09:08:27.494Z,979.7
2018-07-11T09:09:28.634Z,979.7
2018-07-11T09:10:29.865Z,979.8
2018-07-11T09:11:31.015Z,979.8
2018-07-11T09:12:32.197Z,979.7
2018-07-11T09:13:33.369Z,979.9
2018-07-11T09:14:34.503Z,980.1
2018-07-11T09:15:35.716Z,979.9
2018-07-11T09:16:36.987Z,980.1
2018-07-11T09:17:38.115Z,980.1
2018-07-11T09:18:39.278Z,979.9
2018-07-11T09:19:40.465Z,979.9
2018-07-11T09:20:41.631Z,979.9
2018-07-11T09:21:43.260Z,979.7
2018-07-11T09:22:44.398Z,979.9
2018-07-11T09:23:45.640Z,980
2018-07-11T09:24:46.794Z,979.8
2018-07-11T09:25:47.933Z,979.8
2018-07-11T09:26:49.131Z,979.9
2018-07-11T09:27:50.269Z,980
2018-07-11T09:28:51.454Z,980
2018-07-11T09:29:52.631Z,979.9
2018-07-11T09:30:53.818Z,980
2018-07-11T09:31:55.073Z,980
2018-07-11T09:32:56.241Z,980
2018-07-11T09:33:57.632Z,980
2018-07-11T09:34:58.821Z,980
2018-07-11T09:35:59.986Z,979.8
2018-07-11T09:37:01.235Z,979.8
2018-07-11T09:38:02.391Z,979.6
2018-07-11T09:39:03.555Z,979.8
2018-07-11T09:40:04.717Z,979.9
2018-07-11T09:41:05.891Z,979.8
2018-07-11T09:42:07.134Z,979.9
2018-07-11T09:43:08.369Z,979.6
2018-07-11T09:44:09.977Z,979.6
2018-07-11T09:45:11.180Z,979.9
2018-07-11T09:46:12.404Z,979.7
2018-07-11T09:47:13.681Z,979.9
2018-07-11T09:48:14.846Z,980
2018-07-11T09:49:16.153Z,980
2018-07-11T09:50:17.353Z,979.8
2018-07-11T09:51:18.713Z,979.8
2018-07-11T09:52:20.816Z,979.8
2018-07-11T09:53:21.940Z,979.9
2018-07-11T09:54:23.134Z,979.8
2018-07-11T09:55:24.296Z,979.9
2018-07-11T09:56:25.514Z,979.8
2018-07-11T09:57:26.779Z,979.6
2018-07-11T09:58:27.977Z,979.9
2018-07-11T09:59:29.163Z,979.9
2018-07-11T10:00:30.332Z,979.9
2018-07-11T10:01:31.497Z,979.9
2018-07-11T10:02:32.685Z,979.8
2018-07-11T10:03:33.829Z,979.8
2018-07-11T10:04:34.998Z,979.9
2018-07-11T10:05:36.577Z,979.8
2018-07-11T10:06:37.697Z,979.8
2018-07-11T10:07:39.006Z,979.9
2018-07-11T10:08:40.261Z,979.9
2018-07-11T10:09:41.424Z,979.6
2018-07-11T10:10:42.570Z,979.8
2018-07-11T10:11:43.746Z,979.8
2018-07-11T10:12:44.958Z,979.8
2018-07-11T10:13:46.218Z,979.7
2018-07-11T10:14:47.348Z,979.8
2018-07-11T10:15:48.525Z,979.9
2018-07-11T10:16:49.996Z,979.8
2018-07-11T10:17:51.198Z,979.9
2018-07-11T10:18:52.355Z,979.9
2018-07-11T10:19:54.043Z,979.5
2018-07-11T10:20:55.322Z,979.7
2018-07-11T10:21:56.486Z,979.8
2018-07-11T10:22:57.848Z,979.9
2018-07-11T10:23:59.025Z,979.7
2018-07-11T10:25:00.170Z,979.9
2018-07-11T10:26:01.338Z,979.8
2018-07-11T10:27:02.551Z,979.9
2018-07-11T10:28:04.092Z,980
2018-07-11T10:29:05.446Z,979.8
2018-07-11T10:30:06.595Z,979.8
2018-07-11T10:31:07.762Z,979.8
2018-07-11T10:32:08.981Z,979.7
2018-07-11T10:33:10.234Z,979.8
2018-07-11T10:34:11.405Z,979.8
2018-07-11T10:35:12.573Z,979.8
2018-07-11T10:36:13.836Z,979.5
2018-07-11T10:37:15.005Z,979.9
2018-07-11T10:38:16.336Z,979.8
2018-07-11T10:39:17.478Z,979.8
2018-07-11T10:40:18.649Z,979.7
2018-07-11T10:41:19.818Z,979.7
2018-07-11T10:42:21.015Z,979.6
2018-07-11T10:43:24.268Z,979.7
2018-07-11T10:44:25.439Z,979.6
2018-07-11T10:45:26.593Z,979.7
2018-07-11T10:46:27.756Z,979.7
2018-07-11T10:47:28.967Z,979.5
2018-07-11T10:48:30.198Z,979.8
2018-07-11T10:49:31.382Z,979.7
2018-07-11T10:50:32.564Z,979.6
2018-07-11T10:51:33.713Z,979.5
2018-07-11T10:52:34.880Z,979.5
2018-07-11T10:53:36.129Z,979.5
2018-07-11T10:54:37.583Z,979.5
2018-07-11T10:55:38.761Z,979.5
2018-07-11T10:56:39.909Z,979.8
2018-07-11T10:57:41.198Z,979.9
2018-07-11T10:58:42.284Z,979.8
2018-07-11T10:59:43.451Z,979.6
2018-07-11T11:01:05.029Z,979.5
2018-07-11T11:01:45.851Z,979.4
2018-07-11T11:02:47.131Z,979.4
2018-07-11T11:03:48.328Z,979.4
2018-07-11T11:04:49.502Z,979.4
2018-07-11T11:05:50.639Z,979.3
2018-07-11T11:06:51.809Z,979.5
2018-07-11T11:07:53.015Z,979.5
2018-07-11T11:08:54.225Z,979.5
2018-07-11T11:09:55.492Z,979.2
2018-07-11T11:10:56.638Z,979.5
2018-07-11T11:11:57.849Z,979.5
2018-07-11T11:12:59.006Z,979.6
2018-07-11T11:14:00.189Z,979.6
2018-07-11T11:15:01.406Z,979.5
2018-07-11T11:16:02.573Z,979.5
2018-07-11T11:17:03.729Z,979.5
2018-07-11T11:18:04.897Z,979.3
2018-07-11T11:19:06.178Z,979.3
2018-07-11T11:20:07.347Z,979.4
2018-07-11T11:21:08.536Z,979.4
2018-07-11T11:22:09.719Z,979.4
2018-07-11T11:23:10.878Z,979.4
2018-07-11T11:24:12.348Z,979.3
2018-07-11T11:25:13.522Z,979.2
2018-07-11T11:26:14.722Z,979.4
2018-07-11T11:27:16.163Z,979.3
2018-07-11T11:28:17.341Z,979.2
2018-07-11T11:29:18.542Z,979.2
2018-07-11T11:30:19.701Z,979.3
2018-07-11T11:31:20.872Z,979.2
2018-07-11T11:32:22.082Z,979.2
2018-07-11T11:33:23.310Z,979.1
2018-07-11T11:34:24.427Z,979.1
2018-07-11T11:35:25.774Z,979
2018-07-11T11:36:26.937Z,979.3
2018-07-11T11:37:28.081Z,979.2
2018-07-11T11:38:29.240Z,979.2
2018-07-11T11:39:30.602Z,979.2
2018-07-11T11:40:31.762Z,979.3
2018-07-11T11:41:32.980Z,979.2
2018-07-11T11:42:34.316Z,979.2
2018-07-11T11:43:35.222Z,979.3
2018-07-11T11:44:36.398Z,979
2018-07-11T11:45:37.553Z,979.3
2018-07-11T11:46:38.713Z,979.3
2018-07-11T11:47:39.873Z,979.3
2018-07-11T11:48:41.033Z,979.4
2018-07-11T11:49:42.227Z,979.3
2018-07-11T11:50:43.385Z,979.4
2018-07-11T11:51:44.552Z,979.3
2018-07-11T11:52:45.749Z,979.1
2018-07-11T11:53:46.944Z,979.3
2018-07-11T11:54:48.315Z,979.4
2018-07-11T11:55:49.506Z,979.4
2018-07-11T11:56:50.673Z,979.3
2018-07-11T11:57:51.830Z,979.4
2018-07-11T11:58:52.965Z,979.2
2018-07-11T11:59:54.130Z,979.4
2018-07-11T12:00:55.285Z,979.4
2018-07-11T12:01:56.470Z,979.4
2018-07-11T12:02:57.670Z,979.4
2018-07-11T12:03:58.815Z,979.3
2018-07-11T12:04:59.997Z,979.3
2018-07-11T12:06:02.427Z,979.1
2018-07-11T12:07:03.748Z,979.1
2018-07-11T12:08:05.635Z,979.1
2018-07-11T12:09:06.850Z,979.2
2018-07-11T12:10:08.107Z,979.3
2018-07-11T12:11:09.302Z,979.4
2018-07-11T12:12:10.475Z,979.3
2018-07-11T12:13:11.659Z,979.3
2018-07-11T12:14:12.830Z,979.3
2018-07-11T12:15:14.051Z,979.4
2018-07-11T12:16:15.194Z,979.4
2018-07-11T12:17:16.400Z,979.3
2018-07-11T12:18:17.653Z,979.4
2018-07-11T12:19:18.810Z,979.4
2018-07-11T12:20:20.315Z,979.4
2018-07-11T12:21:21.491Z,979.3
2018-07-11T12:22:22.619Z,979.3
2018-07-11T12:23:23.846Z,979.3
2018-07-11T12:24:25.066Z,979.3
2018-07-11T12:25:26.340Z,979.3
2018-07-11T12:26:27.501Z,979.2
2018-07-11T12:27:28.658Z,979.3
2018-07-11T12:28:29.824Z,979.3
2018-07-11T12:29:30.996Z,979.3
2018-07-11T12:30:32.472Z,979.2
2018-07-11T12:31:33.648Z,979.2
2018-07-11T12:32:34.836Z,979.2
2018-07-11T12:33:36.025Z,979.2
2018-07-11T12:34:37.178Z,979.2
2018-07-11T12:35:38.434Z,979.1
2018-07-11T12:36:39.586Z,979.2
2018-07-11T12:37:40.752Z,979.2
2018-07-11T12:38:44.375Z,979.2
2018-07-11T12:39:45.576Z,979.1
2018-07-11T12:40:46.875Z,979.1
2018-07-11T12:41:48.045Z,979.1
2018-07-11T12:42:49.214Z,979.1
2018-07-11T12:43:50.390Z,979.2
2018-07-11T12:44:51.548Z,979.2
2018-07-11T12:45:52.732Z,979.2
2018-07-11T12:46:53.897Z,979.1
2018-07-11T12:47:55.050Z,979.2
2018-07-11T12:48:56.282Z,979.2
2018-07-11T12:49:57.434Z,979.2
2018-07-11T12:50:58.637Z,979.1
2018-07-11T12:51:59.789Z,979
2018-07-11T12:53:00.986Z,979.2
2018-07-11T12:54:02.145Z,979.2
2018-07-11T12:55:03.309Z,979.1
2018-07-11T12:56:04.526Z,979
2018-07-11T12:57:05.795Z,979.1
2018-07-11T12:58:06.982Z,979.2
2018-07-11T12:59:08.164Z,979.2
2018-07-11T13:00:09.319Z,979.1
2018-07-11T13:01:10.497Z,979.2
2018-07-11T13:02:11.673Z,979.2
2018-07-11T13:03:12.846Z,979.2
2018-07-11T13:04:14.030Z,979.2
2018-07-11T13:05:15.190Z,979.2
2018-07-11T13:06:16.450Z,979.1
2018-07-11T13:07:17.618Z,979.2
2018-07-11T13:08:18.791Z,979.1
2018-07-11T13:09:19.931Z,979.1
2018-07-11T13:10:21.074Z,979.2
2018-07-11T13:11:22.346Z,979.1
2018-07-11T13:12:23.550Z,979.1